Cedaredge, CO (81413)

4:47 PM MDT on September 03, 2015 (GMT -0600)
Cedaredge | | Change Station
CLOSE
Current Station
Personal Weather Station
Location: Cedaredge, CO
Elevation: 6657 ft
Nearby Weather Stations

Elev 6657 ft 38.92 °N, 107.91 °W | Updated 10 minutes ago

Overcast
Overcast
74.5 °F
Feels Like 77 °F
N
4.7
Wind Variable Wind from SSE

Today
High -- | Low -- °F
--% Chance of Precip.
Yesterday
High -- | Low -- °F
Precip. -- in
6:42 AM 7:39 PM
Waning Gibbous, 66% visible
Pressure 29.86 in
Visibility 10.0 miles
Clouds Clear
Heat Index 77 °F
Dew Point 50 °F
Humidity 42%
Rainfall 0.02 in
Snow Depth Not available.
UV 6 out of 12
Pollen 8.00 out of 12
Air Quality Not available.
Flu Activity Not available.
METAR KMTJ 032153Z AUTO 19006KT 10SM CLR 23/11 A3010 RMK AO2 SLP112 T02330106
Pressure 29.86 in
Visibility 10.0 miles
Clouds Clear
Heat Index 77 °F
Dew Point 50 °F
Humidity 42%
Rainfall 0.02 in
Snow Depth Not available.
UV 6 out of 12
Pollen 8.00 out of 12
Air Quality Not available.
Flu Activity Not available.
METAR KMTJ 032153Z AUTO 19006KT 10SM CLR 23/11 A3010 RMK AO2 SLP112 T02330106

10-Day Weather Forecast

×

Almanac

Astronomy

Sep. 03, 2015 Rise Set
Actual Time
Civil Twilight
Nautical Twilight
Astronomical Twilight
Moon
Length of Visible Light
Length of Day
Tomorrow will be .
, % of the Moon is Illuminated

Today's Extremes

State Highs State Lows

Community

WunderPhotos

Upload Photos

1,852,049 photos uploaded!

WunderBlogs® & News

Nearby

Air Quality

  Air Quality AQ Index Pollutant
Not available.

Snow Depth

Station Depth Elevation

Earthquake Activity

City Distance Mag. Time & Date
Minimum magnitude displayed is 2.5.

Coastal Water Temperatures

Place Temperature

Stations

Nearby Weather Stations

Station Location Temp. Windchill Dew Point Humidity Wind Precip. Elev Updated Type